Brileytown, Texas
Current Conditions -  °F | °C
As of 3:15 PM on Monday 24 Nov 2014 (Local Time) from KOCH Reporting Station
Clear Clear  
Wind Chill: 63°   Ceiling: Unl
Heat Index: 63°   Visibility: 10mi
Dew Point: 27°   Wind: 14mph
Humidity: 26%   Direction: 330°NNW
Pressure: 30.03"   Gusts: NA
Location:  31.7931°N, 94.5281°W
Report Text: KOCH 242115Z AUTO 33012KT 10SM CLR 17/M03 A3003 RMK AO1
Loading
Personal Weather Stations






























Interactive Weather Map New forecast layout! Learn more

10-Day Weather Forecast

Advertisements
Track Severe Weather on mobile